Portada
METAR-TAF:

METAR-TAF

Aeroports :

Chitose, Japó

latitud: 42-48N, longitud: 141-40E, altitud: 27 m

Observació

L'informe es va fer fa 43 minuts, a les 09:30 UTC
Vent 5 kt del Sud-Est
Temperatura 11°C
Humitat 82%
Pressió 1024 hPa
Visibilitat 10 km o més
Escasses núvols a una alçada de 1800 ft
Núvols disperses a una alçada de 3000 ft
Cel cobert

METAR: RJCC 210930Z 14005KT 9999 FEW018 SCT030 OVC/// 11/08 Q1024

Hora: 19:13 (10:13 UTC)

Pronòstic

L'informe es va fer fa 5 hores i 8 minuts, a les 05:05 UTC
Pronòstic vàlid del 21 a les 06 UTC al 22 a les 12 UTC
Vent 10 kt del Sud
Visibilitat 10 km o més
Escasses núvols a una alçada de 3000 ft
Evolucionant progressivament
l' 21 a les 16 UTC al 21 a les 18 UTC
Vent 20 kt del Sud/Sud-Est

TAF: RJCC 210505Z 2106/2212 17010KT 9999 FEW030 BECMG 2116/2118 16020KT

Observacions i pronòstics meteorològics de més de 4000 aeroports (METAR i TAF).

Les estacions disponibles són els punts grocs i vermells al mapa.

Posi el ratolí al punt desitjat per veure el nom de l'estació.

Feu clic per veure les observacions i els pronòstics meteorològics.

Per canviar el mapa: feu clic els botons verds amb una creu de color negre per apropar; al botó verd amb un guió per allunyar la imatge; o en les fletxes verdes per a mapes adjacents.


METAR-TAF: